Terminal Aerodrome Forecast
Issued by NWS

Home | Current Version | Previous Version | Text Only | Print | Product List | Glossary On
Versions: 1 2 3 4 5 6 7 8 9 10 11 12 13 14 15 16 17 18 19
000
FTUS42 KFFC 021130
TAFFTY
TAF
KFTY 021130Z 0212/0312 00000KT 2SM -DZ BR OVC003
      TEMPO 0212/0214 1/2SM FG OVC002
     FM021500 31004KT P6SM OVC008
     FM021900 32005KT P6SM OVC012
     FM030500 02003KT 5SM -DZ BR OVC008
     FM030800 00000KT 2SM -RA BR OVC008=

USA.gov is the U.S. government's official web portal to all federal, state and local government web resources and services.